createdAt,value
2023-04-05T00:02:51.624Z,73.42
2023-04-05T00:07:08.499Z,73.53
2023-04-05T00:11:21.326Z,74.65
2023-04-05T00:15:33.809Z,75.38
2023-04-05T00:19:46.221Z,76.29
2023-04-05T00:23:58.921Z,76.18
2023-04-05T00:28:12.583Z,76.43
2023-04-05T00:32:25.053Z,76.48
2023-04-05T00:36:37.566Z,75.86
2023-04-05T00:40:50.188Z,74.80
2023-04-05T00:45:04.306Z,74.95
2023-04-05T00:49:17.263Z,75.06
2023-04-05T00:53:29.896Z,75.34
2023-04-05T00:57:42.605Z,75.80
2023-04-05T01:02:06.914Z,74.84
2023-04-05T01:06:44.354Z,74.86
2023-04-05T01:11:00.930Z,74.99
2023-04-05T01:15:14.279Z,74.46
2023-04-05T01:19:30.230Z,76.04
2023-04-05T01:24:30.963Z,76.04
2023-04-05T01:29:20.449Z,75.12
2023-04-05T01:33:41.429Z,74.89
2023-04-05T01:38:00.107Z,74.96
2023-04-05T01:42:12.526Z,75.45
2023-04-05T01:46:26.019Z,76.05
2023-04-05T01:50:38.958Z,75.13
2023-04-05T01:54:51.784Z,74.06
2023-04-05T01:59:04.232Z,72.92
2023-04-05T02:03:17.431Z,71.90
2023-04-05T02:07:30.122Z,71.19
2023-04-05T02:11:42.651Z,71.92
2023-04-05T02:15:55.081Z,71.51
2023-04-05T02:20:12.667Z,72.10
2023-04-05T02:24:25.068Z,70.80
2023-04-05T02:28:37.577Z,71.46
2023-04-05T02:32:50.060Z,70.11
2023-04-05T02:37:03.197Z,69.30
2023-04-05T02:41:15.711Z,68.97
2023-04-05T02:45:28.604Z,68.93
2023-04-05T02:49:43.533Z,69.01
2023-04-05T02:53:56.575Z,68.42
2023-04-05T02:58:11.001Z,68.15
2023-04-05T03:02:29.256Z,68.78
2023-04-05T03:06:45.135Z,68.33
2023-04-05T03:10:58.972Z,68.00
2023-04-05T03:15:11.752Z,68.56
2023-04-05T03:19:27.754Z,68.54
2023-04-05T03:23:48.769Z,69.21
2023-04-05T03:28:06.738Z,69.12
2023-04-05T03:32:19.890Z,69.07
2023-04-05T03:36:46.090Z,67.88
2023-04-05T03:41:16.698Z,67.86
2023-04-05T03:45:32.273Z,67.56
2023-04-05T03:49:44.707Z,67.92
2023-04-05T03:53:57.286Z,68.08
2023-04-05T03:58:12.821Z,67.30
2023-04-05T04:02:26.150Z,68.40
2023-04-05T04:06:38.696Z,69.10
2023-04-05T04:10:51.465Z,69.57
2023-04-05T04:15:13.229Z,69.39
2023-04-05T04:19:30.575Z,69.33
2023-04-05T04:24:01.439Z,69.87
2023-04-05T04:28:35.073Z,68.25
2023-04-05T04:33:09.686Z,68.28
2023-04-05T04:38:00.132Z,68.31
2023-04-05T04:42:26.148Z,69.18
2023-04-05T04:46:54.941Z,68.83
2023-04-05T04:51:26.703Z,69.67
2023-04-05T04:55:42.595Z,69.88
2023-04-05T04:59:55.165Z,69.99
2023-04-05T05:04:07.630Z,70.82
2023-04-05T05:08:22.335Z,72.46
2023-04-05T05:12:34.829Z,73.47
2023-04-05T05:16:47.337Z,73.99
2023-04-05T05:20:59.757Z,75.72
2023-04-05T05:25:12.671Z,76.25
2023-04-05T05:29:26.435Z,75.50
2023-04-05T05:33:38.968Z,77.05
2023-04-05T05:37:51.387Z,77.69
2023-04-05T05:42:03.978Z,75.23
2023-04-05T05:46:16.706Z,76.13
2023-04-05T05:50:33.181Z,76.01
2023-04-05T05:54:45.722Z,75.88
2023-04-05T05:58:59.733Z,75.05
2023-04-05T06:03:12.472Z,76.36
2023-04-05T06:07:25.104Z,75.40
2023-04-05T06:11:46.262Z,77.41
2023-04-05T06:16:02.968Z,76.47
2023-04-05T06:20:15.578Z,76.55
2023-04-05T06:24:32.129Z,75.64
2023-04-05T06:28:44.812Z,74.52
2023-04-05T06:32:57.768Z,74.15
2023-04-05T06:37:10.314Z,73.41
2023-04-05T06:41:22.730Z,72.83
2023-04-05T06:45:35.218Z,74.22
2023-04-05T06:49:47.718Z,72.81
2023-04-05T06:54:00.230Z,72.76
2023-04-05T06:58:12.635Z,72.14
2023-04-05T07:02:25.109Z,72.36
2023-04-05T07:06:39.456Z,72.61
2023-04-05T07:10:52.726Z,71.69
2023-04-05T07:15:05.836Z,71.38
2023-04-05T07:19:18.228Z,69.53
2023-04-05T07:23:31.376Z,68.93
2023-04-05T07:27:43.854Z,67.86
2023-04-05T07:31:56.373Z,66.11
2023-04-05T07:36:09.452Z,62.99
2023-04-05T07:40:21.876Z,59.37
2023-04-05T07:44:34.390Z,60.64
2023-04-05T07:48:50.009Z,56.83
2023-04-05T07:53:02.750Z,57.24
2023-04-05T07:57:19.174Z,55.68
2023-04-05T08:01:32.261Z,57.10
2023-04-05T08:05:44.679Z,55.13
2023-04-05T08:09:58.240Z,52.66
2023-04-05T08:14:11.104Z,52.97
2023-04-05T08:18:23.595Z,50.72
2023-04-05T08:22:36.071Z,50.51
2023-04-05T08:26:49.068Z,48.43
2023-04-05T08:31:01.843Z,48.75
2023-04-05T08:35:14.426Z,46.34
2023-04-05T08:39:27.246Z,45.99
2023-04-05T08:43:58.959Z,45.69
2023-04-05T08:48:11.512Z,42.46
2023-04-05T08:52:24.062Z,43.56
2023-04-05T08:56:37.038Z,40.58
2023-04-05T09:00:51.756Z,41.71
2023-04-05T09:05:09.290Z,42.80
2023-04-05T09:09:23.092Z,42.53
2023-04-05T09:13:35.757Z,43.73
2023-04-05T09:17:48.754Z,43.85
2023-04-05T09:22:08.477Z,42.20
2023-04-05T09:26:26.651Z,39.09
2023-04-05T09:30:48.469Z,39.31
2023-04-05T09:35:08.262Z,43.17
2023-04-05T09:39:29.450Z,45.27
2023-04-05T09:43:43.051Z,44.20
2023-04-05T09:47:58.614Z,44.64
2023-04-05T09:52:25.416Z,46.60
2023-04-05T09:56:42.348Z,46.77
2023-04-05T10:01:06.178Z,46.20
2023-04-05T10:05:28.996Z,47.16
2023-04-05T10:09:43.232Z,46.50
2023-04-05T10:13:55.869Z,47.75
2023-04-05T10:18:19.930Z,45.84
2023-04-05T10:22:53.212Z,46.40
2023-04-05T10:27:21.711Z,45.10
2023-04-05T10:31:58.960Z,46.73
2023-04-05T10:36:46.908Z,46.51
2023-04-05T10:41:16.868Z,48.40
2023-04-05T10:45:30.011Z,51.03
2023-04-05T10:49:50.165Z,50.62
2023-04-05T10:54:03.512Z,50.34
2023-04-05T10:58:16.939Z,50.80
2023-04-05T11:02:30.852Z,50.40
2023-04-05T11:06:48.138Z,50.46
2023-04-05T11:11:01.129Z,49.93
2023-04-05T11:15:32.040Z,51.20
2023-04-05T11:19:50.266Z,52.63
2023-04-05T11:24:12.233Z,52.89
2023-04-05T11:28:34.485Z,52.78
2023-04-05T11:32:46.936Z,52.60
2023-04-05T11:36:59.385Z,51.18
2023-04-05T11:41:18.521Z,51.68
2023-04-05T11:45:32.423Z,52.10
2023-04-05T11:49:50.801Z,54.19
2023-04-05T11:54:03.242Z,54.64
2023-04-05T11:58:21.604Z,53.84
2023-04-05T12:02:36.371Z,54.25
2023-04-05T12:06:49.532Z,56.14
2023-04-05T12:11:01.980Z,55.29
2023-04-05T12:15:15.529Z,55.42
2023-04-05T12:19:30.636Z,55.15
2023-04-05T12:23:43.373Z,55.48
2023-04-05T12:27:55.845Z,53.99
2023-04-05T12:32:08.302Z,53.47
2023-04-05T12:36:20.814Z,53.47
2023-04-05T12:40:36.002Z,54.28
2023-04-05T12:45:03.618Z,55.10
2023-04-05T12:49:18.109Z,54.81
2023-04-05T12:53:30.702Z,55.32
2023-04-05T12:57:43.480Z,54.65
2023-04-05T13:01:55.870Z,53.61
2023-04-05T13:06:08.324Z,54.31
2023-04-05T13:10:22.146Z,52.61
2023-04-05T13:14:34.625Z,52.49
2023-04-05T13:18:47.075Z,51.76
2023-04-05T13:22:59.543Z,52.15
2023-04-05T13:27:11.899Z,51.78
2023-04-05T13:31:24.466Z,51.16
2023-04-05T13:35:37.120Z,51.17
2023-04-05T13:39:49.539Z,49.87
2023-04-05T13:44:03.395Z,49.02
2023-04-05T13:48:16.869Z,49.46
2023-04-05T13:52:30.116Z,49.45
2023-04-05T13:56:42.814Z,49.02
2023-04-05T14:00:55.293Z,49.14
2023-04-05T14:05:08.698Z,50.23
2023-04-05T14:09:21.380Z,49.74
2023-04-05T14:13:35.728Z,48.31
2023-04-05T14:17:48.321Z,50.84
2023-04-05T14:22:00.903Z,45.65
2023-04-05T14:26:13.564Z,47.11
2023-04-05T14:30:26.458Z,46.36
2023-04-05T14:34:39.121Z,44.18
2023-04-05T14:38:51.533Z,40.46
2023-04-05T14:43:04.175Z,39.17
2023-04-05T14:47:16.761Z,38.52
2023-04-05T14:51:29.288Z,37.47
2023-04-05T14:55:41.805Z,38.20
2023-04-05T14:59:54.340Z,37.40
2023-04-05T15:04:08.883Z,38.29
2023-04-05T15:08:21.864Z,39.85
2023-04-05T15:12:34.351Z,40.04
2023-04-05T15:16:46.792Z,41.85
2023-04-05T15:21:00.125Z,42.82
2023-04-05T15:25:12.817Z,42.45
2023-04-05T15:29:25.746Z,43.72
2023-04-05T15:33:38.390Z,44.80
2023-04-05T15:37:50.985Z,47.11
2023-04-05T15:42:03.628Z,47.68
2023-04-05T15:46:16.097Z,48.78
2023-04-05T15:50:29.273Z,47.92
2023-04-05T15:54:41.762Z,48.36
2023-04-05T15:58:54.215Z,48.88
2023-04-05T16:03:06.757Z,49.23
2023-04-05T16:07:19.875Z,49.39
2023-04-05T16:11:32.342Z,48.64
2023-04-05T16:15:44.969Z,49.24
2023-04-05T16:19:57.591Z,48.92
2023-04-05T16:24:10.273Z,49.07
2023-04-05T16:28:22.853Z,48.91
2023-04-05T16:32:35.396Z,48.93
2023-04-05T16:36:48.443Z,49.78
2023-04-05T16:41:00.845Z,50.62
2023-04-05T16:45:13.327Z,50.84
2023-04-05T16:49:25.694Z,50.10
2023-04-05T16:53:38.229Z,50.69
2023-04-05T16:57:50.825Z,51.05
2023-04-05T17:02:03.410Z,51.55
2023-04-05T17:06:16.157Z,52.11
2023-04-05T17:10:28.924Z,53.13
2023-04-05T17:14:41.440Z,53.70
2023-04-05T17:18:53.897Z,53.93
2023-04-05T17:23:06.425Z,54.36
2023-04-05T17:27:18.896Z,55.12
2023-04-05T17:31:33.622Z,54.64
2023-04-05T17:35:46.214Z,54.69
2023-04-05T17:39:58.697Z,55.09
2023-04-05T17:44:11.213Z,55.34
2023-04-05T17:48:23.945Z,55.80
2023-04-05T17:52:36.391Z,54.74
2023-04-05T17:56:48.842Z,56.42
2023-04-05T18:01:01.761Z,57.64
2023-04-05T18:05:14.200Z,58.96
2023-04-05T18:09:28.244Z,59.54
2023-04-05T18:13:40.669Z,60.03
2023-04-05T18:17:53.168Z,58.37
2023-04-05T18:22:05.624Z,59.44
2023-04-05T18:26:18.866Z,59.84
2023-04-05T18:30:41.374Z,58.42
2023-04-05T18:34:53.861Z,57.60
2023-04-05T18:39:06.882Z,58.36
2023-04-05T18:43:19.468Z,60.70
2023-04-05T18:47:33.092Z,60.07
2023-04-05T18:51:49.034Z,60.71
2023-04-05T18:56:01.614Z,63.21
2023-04-05T19:00:14.433Z,64.21
2023-04-05T19:04:26.923Z,63.05
2023-04-05T19:08:40.406Z,64.89
2023-04-05T19:12:52.909Z,64.56
2023-04-05T19:17:06.974Z,63.48
2023-04-05T19:21:20.966Z,65.50
2023-04-05T19:25:33.354Z,65.28
2023-04-05T19:29:46.082Z,64.80
2023-04-05T19:33:59.526Z,65.47
2023-04-05T19:38:14.557Z,65.60
2023-04-05T19:42:27.027Z,66.94
2023-04-05T19:46:40.872Z,66.44
2023-04-05T19:50:56.295Z,67.72
2023-04-05T19:55:27.324Z,68.86
2023-04-05T19:59:40.152Z,68.68
2023-04-05T20:03:52.553Z,67.16
2023-04-05T20:08:07.746Z,66.82
2023-04-05T20:12:22.786Z,69.67
2023-04-05T20:16:37.683Z,70.67
2023-04-05T20:20:50.291Z,70.17
2023-04-05T20:25:34.138Z,69.77
2023-04-05T20:29:46.670Z,69.92
2023-04-05T20:34:11.868Z,70.88
2023-04-05T20:38:24.342Z,70.99
2023-04-05T20:42:37.733Z,70.51
2023-04-05T20:46:54.868Z,70.32
2023-04-05T20:51:08.588Z,71.70
2023-04-05T20:55:21.087Z,71.79
2023-04-05T20:59:33.523Z,69.52
2023-04-05T21:03:47.115Z,72.66
2023-04-05T21:08:01.460Z,71.63
2023-04-05T21:12:14.239Z,70.04
2023-04-05T21:16:26.740Z,71.45
2023-04-05T21:20:39.184Z,73.01
2023-04-05T21:24:51.492Z,71.15
2023-04-05T21:29:03.884Z,70.52
2023-04-05T21:33:18.397Z,72.29
2023-04-05T21:37:30.940Z,71.84
2023-04-05T21:41:43.412Z,71.83
2023-04-05T21:45:55.694Z,72.28
2023-04-05T21:50:10.512Z,72.17
2023-04-05T21:54:22.920Z,72.42
2023-04-05T21:58:35.530Z,73.45
2023-04-05T22:02:47.932Z,73.08
2023-04-05T22:07:00.665Z,72.14
2023-04-05T22:11:13.686Z,74.51
2023-04-05T22:15:26.073Z,74.21
2023-04-05T22:19:38.532Z,73.60
2023-04-05T22:23:51.136Z,74.14
2023-04-05T22:28:03.519Z,73.25
2023-04-05T22:32:16.341Z,71.64
2023-04-05T22:36:28.793Z,75.45
2023-04-05T22:40:41.284Z,73.69
2023-04-05T22:44:53.781Z,75.13
2023-04-05T22:49:06.708Z,73.90
2023-04-05T22:53:19.620Z,72.57
2023-04-05T22:57:32.020Z,73.41
2023-04-05T23:01:44.479Z,73.46
2023-04-05T23:05:57.028Z,73.45
2023-04-05T23:10:09.968Z,73.55
2023-04-05T23:14:22.354Z,72.99
2023-04-05T23:18:34.703Z,73.69
2023-04-05T23:22:48.293Z,74.88
2023-04-05T23:27:00.741Z,74.64
2023-04-05T23:31:13.200Z,74.34
2023-04-05T23:35:25.888Z,74.74
2023-04-05T23:39:38.345Z,74.58
2023-04-05T23:43:50.904Z,73.23
2023-04-05T23:48:03.417Z,73.21
2023-04-05T23:52:16.818Z,73.27
2023-04-05T23:56:29.218Z,71.80
